Time;durP1;ratioP1;P1;durP2;ratioP2;P2;SDS_P1;SDS_P2;PMS_P1;PMS_P2;Temp;Humidity;BMP_temperature;BMP_pressure;BME280_temperature;BME280_humidity;BME280_pressure;Samples;Min_cycle;Max_cycle;Signal;HPM_P1;HPM_P2
2021/11/23 00:02:24;;;;;;;5.37;3.80;;;2.60;99.90;;;;;;5005478;28;20276;-73
2021/11/23 00:04:51;;;;;;;4.47;3.40;;;2.70;99.90;;;;;;5005639;28;20709;-76
2021/11/23 00:07:17;;;;;;;4.40;3.67;;;2.80;99.90;;;;;;5005270;28;20328;-78
2021/11/23 00:09:44;;;;;;;3.97;3.60;;;2.60;99.90;;;;;;5005505;28;20205;-75
2021/11/23 00:12:11;;;;;;;5.27;3.77;;;2.40;99.90;;;;;;5005813;28;20209;-75
2021/11/23 00:14:40;;;;;;;3.93;3.60;;;2.40;99.90;;;;;;5005530;28;20296;-75
2021/11/23 00:17:07;;;;;;;4.57;3.67;;;2.40;99.90;;;;;;5005698;28;20205;-75
2021/11/23 00:19:34;;;;;;;4.33;3.90;;;2.40;99.90;;;;;;5005827;28;20574;-78
2021/11/23 00:22:01;;;;;;;3.87;3.57;;;2.30;99.90;;;;;;5005607;28;20641;-78
2021/11/23 00:24:28;;;;;;;4.07;3.73;;;2.30;99.90;;;;;;5005536;28;20241;-78
2021/11/23 00:26:54;;;;;;;4.47;4.00;;;2.30;99.90;;;;;;5005508;28;21047;-76
2021/11/23 00:29:21;;;;;;;4.37;4.07;;;2.50;99.90;;;;;;5005626;28;20292;-77
2021/11/23 00:31:50;;;;;;;6.50;4.07;;;2.40;99.90;;;;;;5005657;28;20292;-76
2021/11/23 00:34:17;;;;;;;5.87;4.43;;;2.30;99.90;;;;;;5005422;28;20296;-77
2021/11/23 00:36:44;;;;;;;8.17;4.30;;;2.20;99.90;;;;;;5005259;28;20839;-76
2021/11/23 00:39:10;;;;;;;4.13;3.83;;;2.20;99.90;;;;;;5005485;28;20244;-78
2021/11/23 00:41:37;;;;;;;4.47;4.07;;;2.20;99.90;;;;;;5005371;28;20301;-77
2021/11/23 00:44:05;;;;;;;7.80;4.43;;;2.30;99.90;;;;;;5005536;28;20622;-76
2021/11/23 00:46:32;;;;;;;4.73;4.33;;;2.20;99.90;;;;;;5005319;28;20328;-76
2021/11/23 00:49:00;;;;;;;5.40;4.63;;;2.20;99.90;;;;;;5005396;28;20210;-76
2021/11/23 00:51:27;;;;;;;5.13;4.67;;;2.30;99.90;;;;;;5005283;28;20258;-76
2021/11/23 00:53:54;;;;;;;6.77;4.83;;;2.20;99.90;;;;;;5005293;28;20234;-74
2021/11/23 00:56:21;;;;;;;5.17;4.57;;;2.30;99.90;;;;;;5005390;28;20217;-74
2021/11/23 00:58:47;;;;;;;6.43;4.37;;;2.20;99.90;;;;;;5004959;28;20328;-74
2021/11/23 01:01:14;;;;;;;6.70;5.23;;;2.20;99.90;;;;;;5007034;28;20240;-76
2021/11/23 01:03:41;;;;;;;6.67;4.60;;;2.10;99.90;;;;;;5008651;28;20280;-80
2021/11/23 01:06:10;;;;;;;6.10;4.93;;;2.20;99.90;;;;;;5008325;28;20259;-79
2021/11/23 01:08:39;;;;;;;6.40;4.40;;;2.20;99.90;;;;;;5008713;28;20251;-79
2021/11/23 01:11:06;;;;;;;5.13;4.63;;;2.10;99.90;;;;;;5008640;28;20316;-76
2021/11/23 01:13:33;;;;;;;6.50;5.40;;;2.20;99.90;;;;;;5008729;28;20250;-76
2021/11/23 01:16:00;;;;;;;5.07;4.57;;;2.20;99.90;;;;;;5009007;28;20304;-77
2021/11/23 01:18:27;;;;;;;6.63;5.10;;;2.30;99.90;;;;;;5008320;28;20318;-77
2021/11/23 01:20:54;;;;;;;9.10;5.17;;;2.40;99.90;;;;;;5008331;28;20229;-77
2021/11/23 01:23:23;;;;;;;5.27;4.77;;;2.40;99.90;;;;;;5008438;28;20633;-77
2021/11/23 01:25:50;;;;;;;5.30;4.80;;;2.40;99.90;;;;;;5008403;28;20208;-77
2021/11/23 01:28:17;;;;;;;6.13;4.60;;;2.40;99.90;;;;;;5007954;28;20229;-77
2021/11/23 01:30:44;;;;;;;5.23;4.73;;;2.50;99.90;;;;;;5008177;28;20664;-77
2021/11/23 01:33:11;;;;;;;5.23;4.83;;;2.40;99.90;;;;;;5007981;28;20209;-77
2021/11/23 01:35:38;;;;;;;5.33;4.83;;;2.40;99.90;;;;;;5008410;28;20205;-77
2021/11/23 01:38:05;;;;;;;5.70;5.07;;;2.30;99.90;;;;;;5008260;28;20573;-77
2021/11/23 01:40:34;;;;;;;6.87;5.83;;;2.20;99.90;;;;;;5007988;28;20213;-77
2021/11/23 01:43:05;;;;;;;5.90;5.37;;;2.30;99.90;;;;;;5007579;28;20237;-77
2021/11/23 01:45:32;;;;;;;6.47;5.30;;;2.30;99.90;;;;;;5007990;28;20642;-77
2021/11/23 01:47:59;;;;;;;5.60;5.10;;;2.40;99.90;;;;;;5007850;28;20278;-77
2021/11/23 01:50:26;;;;;;;5.73;5.07;;;2.50;99.90;;;;;;5007586;28;20308;-77
2021/11/23 01:52:53;;;;;;;6.37;5.23;;;2.50;99.90;;;;;;5008239;28;20316;-76
2021/11/23 01:55:20;;;;;;;6.27;4.90;;;2.40;99.90;;;;;;5007820;28;20217;-76
2021/11/23 01:57:49;;;;;;;6.20;5.60;;;2.40;99.90;;;;;;5007924;28;20626;-76
2021/11/23 02:00:16;;;;;;;6.10;5.20;;;2.40;99.90;;;;;;5007629;28;20335;-76
2021/11/23 02:02:44;;;;;;;5.90;5.27;;;2.50;99.90;;;;;;5007323;28;20320;-76
2021/11/23 02:05:11;;;;;;;5.60;5.10;;;2.50;99.90;;;;;;5007400;28;20317;-75
2021/11/23 02:07:38;;;;;;;5.73;5.17;;;2.50;99.90;;;;;;5007306;28;20229;-75
2021/11/23 02:10:07;;;;;;;6.47;5.47;;;2.50;99.90;;;;;;5007002;28;20304;-75
2021/11/23 02:12:35;;;;;;;7.80;5.80;;;2.40;99.90;;;;;;5006189;28;20252;-75
2021/11/23 02:15:06;;;;;;;6.10;5.60;;;2.40;99.90;;;;;;5006923;28;20206;-75
2021/11/23 02:17:33;;;;;;;9.83;5.83;;;2.50;99.90;;;;;;5007517;28;20305;-75
2021/11/23 02:20:02;;;;;;;9.90;6.23;;;2.50;99.90;;;;;;5006885;28;20277;-75
2021/11/23 02:22:30;;;;;;;6.20;5.70;;;2.50;99.90;;;;;;5006792;28;20596;-75
2021/11/23 02:24:57;;;;;;;6.80;6.10;;;2.40;99.90;;;;;;5007114;28;20249;-74
2021/11/23 02:27:24;;;;;;;5.83;5.33;;;2.40;99.90;;;;;;5007089;28;20229;-74
2021/11/23 02:29:51;;;;;;;5.97;5.30;;;2.30;99.90;;;;;;5007099;28;20289;-74
2021/11/23 02:32:18;;;;;;;6.33;5.83;;;2.50;99.90;;;;;;5006958;28;20301;-75
2021/11/23 02:34:45;;;;;;;7.17;5.67;;;2.50;99.90;;;;;;5006893;28;20300;-75
2021/11/23 02:37:13;;;;;;;6.33;5.57;;;2.60;99.90;;;;;;5007386;28;20293;-80
2021/11/23 02:39:40;;;;;;;7.20;6.07;;;2.50;99.90;;;;;;5007226;28;20298;-81
2021/11/23 02:42:07;;;;;;;7.23;6.53;;;2.50;99.90;;;;;;5007399;28;20205;-80
2021/11/23 02:44:42;;;;;;;7.10;6.07;;;2.60;99.90;;;;;;5007624;28;20220;-82
2021/11/23 02:47:09;;;;;;;6.90;5.67;;;2.70;99.90;;;;;;5007063;28;20319;-79
2021/11/23 02:49:36;;;;;;;6.87;5.97;;;2.60;99.90;;;;;;5007445;28;20213;-78
2021/11/23 02:52:07;;;;;;;6.97;6.27;;;2.50;99.90;;;;;;5007273;28;20245;-78
2021/11/23 02:54:36;;;;;;;8.17;6.53;;;2.60;99.90;;;;;;5007412;28;20193;-77
2021/11/23 02:57:03;;;;;;;7.70;6.77;;;2.50;99.90;;;;;;5007062;28;20300;-75
2021/11/23 02:59:31;;;;;;;6.43;5.83;;;2.50;99.90;;;;;;5006884;28;20233;-75
2021/11/23 03:01:58;;;;;;;7.97;6.23;;;2.50;99.90;;;;;;5006630;28;20268;-75
2021/11/23 03:04:25;;;;;;;7.43;6.40;;;2.50;99.90;;;;;;5006273;28;20264;-75
2021/11/23 03:06:51;;;;;;;7.20;6.50;;;2.60;99.90;;;;;;5006450;28;20235;-75
2021/11/23 03:09:18;;;;;;;8.60;6.40;;;2.60;99.90;;;;;;5006562;28;20240;-75
2021/11/23 03:11:47;;;;;;;7.20;6.50;;;2.70;99.90;;;;;;5006403;28;20252;-75
2021/11/23 03:14:14;;;;;;;7.70;6.03;;;2.60;99.90;;;;;;5006316;28;20266;-75
2021/11/23 03:16:43;;;;;;;8.07;6.23;;;2.50;99.90;;;;;;5006356;28;20300;-75
2021/11/23 03:19:10;;;;;;;7.47;6.67;;;2.60;99.90;;;;;;5006516;28;20221;-75
2021/11/23 03:21:37;;;;;;;7.17;6.47;;;2.70;99.90;;;;;;5006530;28;20298;-75
2021/11/23 03:24:05;;;;;;;8.07;6.23;;;2.70;99.90;;;;;;5006310;28;20245;-75
2021/11/23 03:26:32;;;;;;;8.00;6.70;;;2.70;99.90;;;;;;5011207;28;20214;-75
2021/11/23 03:29:00;;;;;;;7.80;7.10;;;2.80;99.90;;;;;;5013033;28;20290;-77
2021/11/23 03:31:27;;;;;;;7.97;6.73;;;2.80;99.90;;;;;;5025891;28;20690;-73
2021/11/23 03:33:54;;;;;;;6.73;6.13;;;2.90;99.90;;;;;;5026787;28;20216;-75
2021/11/23 03:36:20;;;;;;;8.03;6.87;;;2.90;99.90;;;;;;5026066;28;20614;-75
2021/11/23 03:38:47;;;;;;;6.87;5.67;;;2.90;99.90;;;;;;5020214;28;20235;-75
2021/11/23 03:41:14;;;;;;;6.90;6.27;;;2.90;99.90;;;;;;5019882;28;20251;-75
2021/11/23 03:43:41;;;;;;;8.20;6.37;;;3.00;99.90;;;;;;5002626;28;20229;-75
2021/11/23 03:46:10;;;;;;;9.13;6.87;;;3.00;99.90;;;;;;5002461;28;20229;-75
2021/11/23 03:48:37;;;;;;;10.07;6.80;;;3.00;99.90;;;;;;5002737;28;20584;-75
2021/11/23 03:51:03;;;;;;;8.10;7.30;;;3.00;99.90;;;;;;5015029;28;20212;-76
2021/11/23 03:53:30;;;;;;;11.20;7.53;;;3.10;99.90;;;;;;5018863;28;20747;-76
2021/11/23 03:55:57;;;;;;;9.23;8.23;;;3.20;99.90;;;;;;5002471;28;20237;-75
2021/11/23 03:58:24;;;;;;;8.90;7.50;;;3.20;99.90;;;;;;5002106;28;20210;-75
2021/11/23 04:00:51;;;;;;;13.73;8.20;;;3.20;99.90;;;;;;5002144;28;20292;-75
2021/11/23 04:03:19;;;;;;;12.07;7.67;;;3.10;99.90;;;;;;5001635;28;20352;-75
2021/11/23 04:05:46;;;;;;;11.93;7.50;;;3.10;99.90;;;;;;5002069;28;20651;-75
2021/11/23 04:08:14;;;;;;;13.27;8.40;;;3.10;99.90;;;;;;5002030;28;20261;-75
2021/11/23 04:10:42;;;;;;;10.43;8.00;;;3.10;99.90;;;;;;5002024;28;20237;-75
2021/11/23 04:13:09;;;;;;;8.80;7.53;;;3.10;99.90;;;;;;5001932;28;20213;-75
2021/11/23 04:15:36;;;;;;;10.43;9.33;;;3.10;99.90;;;;;;5005524;28;20293;-75
2021/11/23 04:18:03;;;;;;;17.07;9.33;;;3.10;99.90;;;;;;5004118;28;20209;-76
2021/11/23 04:20:31;;;;;;;11.60;9.03;;;3.10;99.90;;;;;;5004526;28;20231;-75
2021/11/23 04:22:58;;;;;;;12.40;9.93;;;3.00;99.90;;;;;;5005497;28;20201;-75
2021/11/23 04:25:25;;;;;;;16.33;10.37;;;3.10;99.90;;;;;;5005429;28;20219;-75
2021/11/23 04:27:52;;;;;;;14.70;10.40;;;3.00;99.90;;;;;;5005130;28;20225;-75
2021/11/23 04:30:20;;;;;;;14.27;10.87;;;3.10;99.90;;;;;;5005099;28;20304;-75
2021/11/23 04:32:47;;;;;;;14.73;11.23;;;3.10;99.90;;;;;;5005492;28;20206;-75
2021/11/23 04:35:14;;;;;;;13.27;11.07;;;3.10;99.90;;;;;;5006299;28;20588;-75
2021/11/23 04:37:43;;;;;;;15.17;11.03;;;3.00;99.90;;;;;;5008808;28;20669;-75
2021/11/23 04:40:13;;;;;;;17.90;12.50;;;3.10;99.90;;;;;;5008927;28;20201;-75
2021/11/23 04:42:40;;;;;;;14.70;11.57;;;3.10;99.90;;;;;;5008864;28;20635;-75
2021/11/23 04:45:09;;;;;;;15.20;11.67;;;3.10;99.90;;;;;;5008598;28;20225;-75
2021/11/23 04:47:37;;;;;;;15.87;12.33;;;3.10;99.90;;;;;;5008968;28;20233;-75
2021/11/23 04:50:05;;;;;;;15.70;11.20;;;3.20;99.90;;;;;;5008536;28;20240;-75
2021/11/23 04:52:32;;;;;;;18.17;11.83;;;3.20;99.90;;;;;;5008622;28;20298;-75
2021/11/23 04:55:00;;;;;;;14.97;11.13;;;3.20;99.90;;;;;;5008947;28;20209;-75
2021/11/23 04:57:28;;;;;;;19.60;11.50;;;3.30;99.90;;;;;;5008415;28;21047;-75
2021/11/23 04:59:56;;;;;;;14.57;11.23;;;3.40;99.90;;;;;;5008702;28;20296;-75
2021/11/23 05:02:23;;;;;;;20.37;12.67;;;3.30;99.90;;;;;;5008132;28;20243;-75
2021/11/23 05:04:50;;;;;;;19.23;11.20;;;3.40;99.90;;;;;;5008720;28;20261;-75
2021/11/23 05:07:17;;;;;;;13.70;10.50;;;3.40;99.90;;;;;;5008155;28;20999;-75
2021/11/23 05:09:44;;;;;;;14.93;11.30;;;3.40;99.90;;;;;;5008266;28;20239;-76
2021/11/23 05:12:12;;;;;;;15.97;11.13;;;3.50;99.90;;;;;;5008096;28;20240;-75
2021/11/23 05:14:39;;;;;;;14.70;10.50;;;3.50;99.90;;;;;;5008692;28;20292;-75
2021/11/23 05:17:06;;;;;;;16.03;11.17;;;3.50;99.90;;;;;;5008421;28;20209;-75
2021/11/23 05:19:33;;;;;;;14.07;10.27;;;3.60;99.90;;;;;;5008181;28;20567;-75
2021/11/23 05:22:00;;;;;;;17.03;10.97;;;3.60;99.90;;;;;;5008611;28;20216;-76
2021/11/23 05:24:27;;;;;;;13.17;10.97;;;3.70;99.90;;;;;;5008108;28;20213;-75
2021/11/23 05:26:54;;;;;;;12.57;10.30;;;3.70;99.90;;;;;;5007994;28;20849;-75
2021/11/23 05:29:22;;;;;;;16.67;10.67;;;3.70;99.90;;;;;;5008082;28;20672;-75
2021/11/23 05:31:49;;;;;;;15.73;10.00;;;3.70;99.90;;;;;;5007770;28;20202;-76
2021/11/23 05:34:16;;;;;;;17.63;10.73;;;3.80;99.90;;;;;;5007935;28;20202;-76
2021/11/23 05:36:44;;;;;;;15.83;11.13;;;3.80;99.90;;;;;;5008378;28;20233;-75
2021/11/23 05:39:11;;;;;;;14.67;10.33;;;3.80;99.90;;;;;;5008056;28;20265;-75
2021/11/23 05:41:38;;;;;;;14.97;11.07;;;3.90;99.90;;;;;;5007728;28;20711;-76
2021/11/23 05:44:05;;;;;;;14.37;11.10;;;3.90;99.90;;;;;;5007718;28;20216;-75
2021/11/23 05:46:33;;;;;;;12.97;10.47;;;4.00;99.90;;;;;;5006846;28;20213;-76
2021/11/23 05:49:00;;;;;;;18.47;11.27;;;4.00;99.90;;;;;;5007318;28;20605;-75
2021/11/23 05:51:27;;;;;;;15.10;11.10;;;4.00;99.90;;;;;;5007673;28;20259;-75
2021/11/23 05:53:54;;;;;;;17.40;12.23;;;4.10;99.90;;;;;;5007692;28;20212;-75
2021/11/23 05:56:21;;;;;;;16.03;11.53;;;4.10;99.90;;;;;;5007860;28;20301;-75
2021/11/23 05:58:49;;;;;;;18.53;11.77;;;4.10;99.90;;;;;;5008089;28;20209;-76
2021/11/23 06:01:16;;;;;;;14.70;11.50;;;4.10;99.90;;;;;;5007648;28;20245;-75
2021/11/23 06:03:44;;;;;;;19.90;12.03;;;4.10;99.90;;;;;;5007604;28;20312;-75
2021/11/23 06:06:13;;;;;;;18.80;12.30;;;4.20;99.90;;;;;;5007606;28;20236;-75
2021/11/23 06:08:40;;;;;;;15.07;11.53;;;4.20;99.90;;;;;;5007744;28;20233;-75
2021/11/23 06:11:07;;;;;;;19.00;12.23;;;4.20;99.90;;;;;;5006990;28;20256;-76
2021/11/23 06:13:35;;;;;;;15.27;12.50;;;4.20;99.90;;;;;;5010440;28;20221;-76
2021/11/23 06:16:02;;;;;;;16.53;11.77;;;4.20;99.90;;;;;;5027276;28;20265;-75
2021/11/23 06:18:29;;;;;;;20.37;12.20;;;4.30;99.90;;;;;;5027364;28;20217;-76
2021/11/23 06:20:57;;;;;;;18.23;12.87;;;4.30;99.90;;;;;;5027230;28;20226;-76
2021/11/23 06:23:25;;;;;;;18.53;12.50;;;4.30;99.90;;;;;;5027204;28;20213;-76
2021/11/23 06:25:54;;;;;;;21.87;12.70;;;4.30;99.90;;;;;;5027143;28;20269;-76
2021/11/23 06:28:23;;;;;;;20.97;13.23;;;4.30;99.90;;;;;;5026666;28;20714;-75
2021/11/23 06:30:51;;;;;;;23.87;13.50;;;4.30;99.90;;;;;;5027098;28;20205;-75
2021/11/23 06:33:18;;;;;;;19.37;12.70;;;4.30;99.90;;;;;;5026819;28;20269;-76
2021/11/23 06:35:46;;;;;;;19.20;13.33;;;4.30;99.90;;;;;;5026707;28;20212;-75
2021/11/23 06:38:15;;;;;;;20.47;13.63;;;4.40;99.90;;;;;;5026499;28;20205;-75
2021/11/23 06:40:42;;;;;;;18.00;12.97;;;4.40;99.90;;;;;;5026855;28;20755;-75
2021/11/23 06:43:11;;;;;;;24.30;13.70;;;4.40;99.90;;;;;;5027273;28;20236;-75
2021/11/23 06:45:39;;;;;;;23.50;13.93;;;4.40;99.90;;;;;;5026955;28;20419;-75
2021/11/23 06:48:08;;;;;;;21.50;13.33;;;4.40;99.90;;;;;;5026781;28;20315;-75
2021/11/23 06:50:35;;;;;;;24.53;13.50;;;4.40;99.90;;;;;;5026864;28;20254;-73
2021/11/23 06:53:04;;;;;;;25.17;14.70;;;4.40;99.90;;;;;;5026816;28;20216;-76
2021/11/23 06:55:32;;;;;;;23.13;14.53;;;4.40;99.90;;;;;;5026604;28;20300;-76
2021/11/23 06:57:59;;;;;;;22.97;14.90;;;4.40;99.90;;;;;;5025923;28;20209;-76
2021/11/23 07:00:27;;;;;;;21.33;14.67;;;4.40;99.90;;;;;;5026676;28;20237;-75
2021/11/23 07:02:54;;;;;;;23.93;14.87;;;4.40;99.90;;;;;;5026298;28;20237;-76
2021/11/23 07:05:24;;;;;;;26.87;15.27;;;4.40;99.90;;;;;;5026506;28;20232;-75
2021/11/23 07:07:51;;;;;;;21.53;14.90;;;4.40;99.90;;;;;;5026417;28;20201;-75
2021/11/23 07:10:19;;;;;;;26.00;14.33;;;4.40;99.90;;;;;;5026296;28;20213;-76
2021/11/23 07:12:47;;;;;;;21.90;14.10;;;4.40;99.90;;;;;;5026634;28;20288;-75
2021/11/23 07:15:14;;;;;;;23.73;15.67;;;4.40;99.90;;;;;;5026412;28;20208;-75
2021/11/23 07:17:41;;;;;;;26.70;14.47;;;4.40;99.90;;;;;;5026027;28;20213;-75
2021/11/23 07:20:09;;;;;;;25.53;14.73;;;4.40;99.90;;;;;;5026197;28;20256;-75
2021/11/23 07:22:36;;;;;;;24.77;14.40;;;4.50;99.90;;;;;;5026033;28;20206;-76
2021/11/23 07:25:03;;;;;;;27.47;14.73;;;4.50;99.90;;;;;;5026210;28;20205;-76
2021/11/23 07:27:30;;;;;;;27.80;14.90;;;4.50;99.90;;;;;;5026177;28;20209;-75
2021/11/23 07:29:58;;;;;;;28.40;14.83;;;4.50;99.90;;;;;;5026135;28;20268;-75
2021/11/23 07:32:25;;;;;;;31.43;15.90;;;4.50;99.90;;;;;;5025453;28;20689;-76
2021/11/23 07:34:52;;;;;;;22.33;14.20;;;4.50;99.90;;;;;;5026133;28;20212;-75
2021/11/23 07:37:19;;;;;;;29.40;15.80;;;4.50;99.90;;;;;;5026033;28;20209;-75
2021/11/23 07:39:47;;;;;;;28.23;14.73;;;4.50;99.90;;;;;;5025978;28;20236;-75
2021/11/23 07:42:14;;;;;;;23.67;14.87;;;4.60;99.90;;;;;;5025683;28;20224;-75
2021/11/23 07:44:41;;;;;;;28.87;16.43;;;4.50;99.90;;;;;;5025897;28;20336;-75
2021/11/23 07:47:10;;;;;;;30.07;15.93;;;4.60;99.90;;;;;;5025577;28;20296;-75
2021/11/23 07:49:36;;;;;;;24.93;14.80;;;4.60;99.90;;;;;;5025609;28;20321;-76
2021/11/23 07:52:04;;;;;;;28.40;15.70;;;4.60;99.90;;;;;;5026007;28;21005;-75
2021/11/23 07:54:31;;;;;;;28.47;15.23;;;4.60;99.90;;;;;;5025428;28;20295;-76
2021/11/23 07:56:58;;;;;;;29.30;15.67;;;4.70;99.90;;;;;;5025436;28;20213;-75
2021/11/23 07:59:25;;;;;;;28.50;15.37;;;4.70;99.90;;;;;;5025799;28;20265;-75
2021/11/23 08:01:52;;;;;;;25.33;14.60;;;4.70;99.90;;;;;;5024988;28;20320;-75
2021/11/23 08:04:20;;;;;;;28.93;15.77;;;4.70;99.90;;;;;;5025227;28;20229;-75
2021/11/23 08:06:47;;;;;;;25.90;15.03;;;4.80;99.90;;;;;;5025724;28;20296;-76
2021/11/23 08:09:14;;;;;;;30.47;15.03;;;4.70;99.90;;;;;;5025057;28;20241;-75
2021/11/23 08:11:41;;;;;;;31.17;14.73;;;4.80;99.90;;;;;;5024930;28;20233;-75
2021/11/23 08:14:08;;;;;;;31.13;15.03;;;4.80;99.90;;;;;;5025017;28;20303;-75
2021/11/23 08:16:35;;;;;;;24.67;15.00;;;4.80;99.90;;;;;;5025468;28;20647;-75
2021/11/23 08:19:02;;;;;;;23.80;14.57;;;4.80;99.90;;;;;;5025125;28;20315;-75
2021/11/23 08:21:30;;;;;;;25.00;13.97;;;4.80;99.90;;;;;;5025295;28;20295;-75
2021/11/23 08:23:57;;;;;;;32.07;14.97;;;4.80;99.90;;;;;;5025664;28;20203;-76
2021/11/23 08:26:25;;;;;;;27.50;14.50;;;4.80;99.90;;;;;;5025544;28;20205;-76
2021/11/23 08:28:52;;;;;;;29.60;14.77;;;4.80;99.90;;;;;;5024951;28;20237;-75
2021/11/23 08:31:19;;;;;;;28.30;14.63;;;4.90;99.90;;;;;;5025284;28;20212;-75
2021/11/23 08:33:46;;;;;;;26.73;14.43;;;4.90;99.90;;;;;;5025515;28;20219;-76
2021/11/23 08:36:13;;;;;;;22.30;13.80;;;4.90;99.90;;;;;;5025084;28;20248;-76
2021/11/23 08:38:41;;;;;;;23.33;14.30;;;4.90;99.90;;;;;;5025535;28;20219;-75
2021/11/23 08:41:10;;;;;;;24.20;13.70;;;4.90;99.90;;;;;;5024948;28;20268;-75
2021/11/23 08:43:37;;;;;;;28.83;14.63;;;4.90;99.90;;;;;;5025344;28;20221;-75
2021/11/23 08:46:04;;;;;;;27.97;14.97;;;5.00;99.90;;;;;;5025301;28;20205;-76
2021/11/23 08:48:32;;;;;;;28.67;13.93;;;5.00;99.90;;;;;;5024971;28;20210;-75
2021/11/23 08:51:00;;;;;;;33.60;14.27;;;5.00;99.90;;;;;;5024853;28;20222;-75
2021/11/23 08:53:27;;;;;;;25.37;14.37;;;5.00;99.90;;;;;;5024746;28;20735;-75
2021/11/23 08:55:56;;;;;;;26.03;14.87;;;5.10;99.90;;;;;;5025371;28;20565;-75
2021/11/23 08:58:24;;;;;;;29.03;14.57;;;5.10;99.90;;;;;;5024570;28;20215;-76
2021/11/23 09:00:51;;;;;;;29.30;13.83;;;5.10;99.90;;;;;;5024854;28;20254;-75
2021/11/23 09:03:18;;;;;;;27.17;14.67;;;5.10;99.90;;;;;;5024730;28;20227;-76
2021/11/23 09:05:45;;;;;;;31.30;14.37;;;5.10;99.90;;;;;;5024684;28;20298;-75
2021/11/23 09:08:12;;;;;;;33.90;15.80;;;5.10;99.90;;;;;;5024545;28;20209;-75
2021/11/23 09:10:40;;;;;;;23.43;13.77;;;5.10;99.90;;;;;;5024646;28;20260;-76
2021/11/23 09:13:09;;;;;;;21.33;12.47;;;5.20;99.90;;;;;;5024573;28;20205;-76
2021/11/23 09:15:36;;;;;;;26.87;13.37;;;5.20;99.90;;;;;;5024469;28;20222;-75
2021/11/23 09:18:04;;;;;;;27.27;13.57;;;5.20;99.90;;;;;;5024625;28;20624;-76
2021/11/23 09:20:36;;;;;;;27.63;14.20;;;5.20;99.90;;;;;;5024467;28;20319;-75
2021/11/23 09:23:05;;;;;;;26.50;13.50;;;5.20;99.90;;;;;;5028409;28;20220;-76
2021/11/23 09:25:32;;;;;;;35.77;14.83;;;5.30;99.90;;;;;;5027377;28;20208;-75
2021/11/23 09:28:00;;;;;;;29.93;15.60;;;5.30;99.90;;;;;;5025878;28;21028;-76
2021/11/23 09:30:30;;;;;;;37.13;15.47;;;5.30;99.90;;;;;;5024468;27;20237;-75
2021/11/23 09:32:59;;;;;;;30.77;14.67;;;5.40;99.90;;;;;;5023214;28;20209;-75
2021/11/23 09:35:26;;;;;;;37.77;14.83;;;5.40;99.90;;;;;;5027665;28;20214;-76
2021/11/23 09:37:54;;;;;;;42.30;15.80;;;5.40;99.90;;;;;;5027958;28;20215;-75
2021/11/23 09:40:22;;;;;;;35.47;15.70;;;5.40;99.90;;;;;;5027374;28;20315;-76
2021/11/23 09:42:50;;;;;;;30.93;15.43;;;5.50;99.90;;;;;;5027488;28;20205;-76
2021/11/23 09:45:18;;;;;;;36.20;15.63;;;5.50;99.90;;;;;;5027884;28;20281;-76
2021/11/23 09:47:46;;;;;;;33.03;15.37;;;5.50;99.90;;;;;;5027983;28;20216;-75
2021/11/23 09:50:14;;;;;;;30.43;15.03;;;5.50;99.90;;;;;;5027724;28;20327;-75
2021/11/23 09:52:41;;;;;;;27.37;15.40;;;5.50;99.90;;;;;;5027800;28;20296;-75
2021/11/23 09:55:10;;;;;;;31.43;15.90;;;5.60;99.90;;;;;;5027665;28;20227;-76
2021/11/23 09:57:37;;;;;;;29.70;15.30;;;5.50;99.90;;;;;;5027575;28;20215;-75
2021/11/23 10:00:22;;;;;;;29.77;15.13;;;5.60;99.90;;;;;;5027189;28;20243;-75
2021/11/23 10:02:51;;;;;;;29.40;15.40;;;5.60;99.90;;;;;;5027130;28;20323;-75
2021/11/23 10:05:19;;;;;;;30.97;14.93;;;5.60;99.90;;;;;;5027299;28;20205;-76
2021/11/23 10:07:47;;;;;;;29.97;14.87;;;5.60;99.90;;;;;;5027579;28;20257;-76
2021/11/23 10:10:17;;;;;;;30.30;15.07;;;5.60;99.90;;;;;;5027050;28;20285;-75
2021/11/23 10:12:55;;;;;;;28.60;14.30;;;5.60;99.90;;;;;;5027263;28;20662;-75
2021/11/23 10:15:25;;;;;;;28.63;14.57;;;5.60;99.90;;;;;;5026979;28;20738;-76
2021/11/23 10:17:55;;;;;;;30.93;15.43;;;5.60;99.90;;;;;;5026918;28;20219;-75
2021/11/23 10:20:31;;;;;;;28.13;15.00;;;5.70;99.90;;;;;;5026943;28;20704;-76
2021/11/23 10:23:10;;;;;;;27.67;14.57;;;5.70;99.90;;;;;;5027281;28;20250;-76
2021/11/23 10:25:37;;;;;;;26.63;14.57;;;5.70;99.90;;;;;;5027174;28;20678;-76
2021/11/23 10:28:05;;;;;;;28.80;15.10;;;5.70;99.90;;;;;;5026979;28;20735;-76
2021/11/23 10:30:32;;;;;;;27.37;14.60;;;5.70;99.90;;;;;;5026787;28;20714;-76
2021/11/23 10:33:00;;;;;;;32.10;14.83;;;5.70;99.90;;;;;;5026418;28;20218;-76
2021/11/23 10:35:28;;;;;;;27.00;14.27;;;5.80;99.90;;;;;;5026563;28;20311;-76
2021/11/23 10:37:55;;;;;;;29.07;14.53;;;5.80;99.90;;;;;;5026746;28;20208;-76
2021/11/23 10:40:25;;;;;;;28.30;15.07;;;5.80;99.90;;;;;;5026519;28;20319;-76
2021/11/23 10:42:53;;;;;;;25.10;13.30;;;5.80;99.90;;;;;;5026355;28;20730;-75
2021/11/23 10:45:21;;;;;;;27.13;14.33;;;5.80;99.90;;;;;;5026826;28;20300;-75
2021/11/23 10:47:50;;;;;;;25.90;14.60;;;5.90;99.90;;;;;;5027040;28;20305;-76
2021/11/23 10:50:20;;;;;;;26.77;13.70;;;5.90;99.90;;;;;;5026509;28;20323;-76
2021/11/23 10:52:50;;;;;;;18.57;11.63;;;5.90;99.90;;;;;;5027107;28;20197;-76
2021/11/23 10:55:29;;;;;;;27.47;13.80;;;5.90;99.90;;;;;;5026863;28;20284;-76
2021/11/23 10:57:59;;;;;;;24.17;12.97;;;5.90;99.90;;;;;;5026543;28;20271;-76
2021/11/23 11:00:30;;;;;;;27.70;13.17;;;5.90;99.90;;;;;;5026558;28;20292;-76
2021/11/23 11:03:01;;;;;;;25.43;13.37;;;6.00;99.90;;;;;;5026085;28;20304;-76
2021/11/23 11:05:31;;;;;;;25.33;13.83;;;6.00;99.90;;;;;;5026286;28;20706;-76
2021/11/23 11:07:59;;;;;;;26.93;13.40;;;6.00;99.90;;;;;;5026961;28;20301;-76
2021/11/23 11:10:27;;;;;;;24.73;13.17;;;6.00;99.90;;;;;;5026358;28;20319;-76
2021/11/23 11:12:55;;;;;;;26.67;13.33;;;6.10;99.90;;;;;;5026687;28;20208;-75
2021/11/23 11:15:27;;;;;;;24.20;13.60;;;6.10;99.90;;;;;;5026524;28;20205;-76
2021/11/23 11:17:55;;;;;;;30.97;14.50;;;6.10;99.90;;;;;;5025951;28;20196;-75
2021/11/23 11:20:43;;;;;;;22.73;12.80;;;6.20;99.90;;;;;;5026247;28;20219;-75
2021/11/23 11:23:14;;;;;;;27.80;12.97;;;6.10;99.90;;;;;;5025550;28;20196;-76
2021/11/23 11:26:09;;;;;;;23.53;13.20;;;6.20;99.90;;;;;;5026165;28;20213;-76
2021/11/23 11:28:51;;;;;;;28.00;13.53;;;6.20;99.90;;;;;;5025814;28;20258;-75
2021/11/23 11:31:40;;;;;;;24.80;13.00;;;6.20;99.90;;;;;;5025866;28;20234;-76
2021/11/23 11:34:31;;;;;;;29.30;14.00;;;6.30;99.90;;;;;;5026089;28;20216;-76
2021/11/23 11:37:09;;;;;;;22.07;12.40;;;6.30;99.90;;;;;;5030319;28;20205;-76
2021/11/23 11:40:06;;;;;;;25.37;13.77;;;6.30;99.90;;;;;;5026241;28;20219;-76
2021/11/23 11:42:51;;;;;;;23.07;13.30;;;6.30;99.90;;;;;;5025738;28;20201;-76
2021/11/23 11:45:20;;;;;;;26.73;13.77;;;6.40;99.90;;;;;;5024724;28;20215;-76
2021/11/23 11:47:48;;;;;;;26.80;12.67;;;6.40;99.90;;;;;;5025917;28;20215;-75
2021/11/23 11:50:33;;;;;;;21.70;12.40;;;6.40;99.90;;;;;;5026008;28;20633;-76
2021/11/23 11:53:14;;;;;;;21.23;12.90;;;6.40;99.90;;;;;;5025972;28;20197;-76
2021/11/23 11:55:50;;;;;;;23.67;12.73;;;6.40;99.90;;;;;;5025520;28;20198;-76
2021/11/23 11:58:45;;;;;;;24.50;12.50;;;6.40;99.90;;;;;;5025830;28;20215;-76
2021/11/23 12:01:20;;;;;;;23.90;12.97;;;6.40;99.90;;;;;;5025132;28;20209;-76
2021/11/23 12:04:00;;;;;;;25.57;12.53;;;6.40;99.90;;;;;;5025886;28;20272;-76
2021/11/23 12:07:09;;;;;;;23.10;11.90;;;6.50;99.90;;;;;;5025817;28;20290;-76
2021/11/23 12:09:40;;;;;;;21.73;12.13;;;6.50;99.90;;;;;;5025034;28;20642;-76
2021/11/23 12:12:39;;;;;;;25.33;12.40;;;6.50;99.90;;;;;;5025461;28;20200;-76
2021/11/23 12:15:10;;;;;;;20.03;11.80;;;6.50;99.90;;;;;;5025494;27;20241;-75
2021/11/23 12:17:51;;;;;;;18.43;11.10;;;6.50;99.90;;;;;;5025093;28;20686;-76
2021/11/23 12:20:32;;;;;;;22.80;11.67;;;6.50;99.90;;;;;;5025632;28;20285;-76
2021/11/23 12:23:15;;;;;;;23.03;11.97;;;6.60;99.90;;;;;;5025252;28;20288;-76
2021/11/23 12:25:54;;;;;;;23.13;11.57;;;6.60;99.90;;;;;;5025405;28;20571;-76
2021/11/23 12:28:22;;;;;;;19.47;11.47;;;6.60;99.90;;;;;;5025532;28;20287;-75
2021/11/23 12:30:49;;;;;;;16.77;11.20;;;6.60;99.90;;;;;;5024748;28;21139;-75
2021/11/23 12:33:16;;;;;;;21.67;11.20;;;6.60;99.90;;;;;;5025131;28;20327;-76
2021/11/23 12:35:43;;;;;;;22.10;11.97;;;6.60;99.90;;;;;;5025090;28;20213;-75
2021/11/23 12:38:26;;;;;;;27.67;11.63;;;6.60;99.90;;;;;;5025135;28;20240;-75
2021/11/23 12:40:56;;;;;;;17.80;10.80;;;6.60;99.90;;;;;;5025271;28;20376;-76
2021/11/23 12:43:34;;;;;;;15.80;9.70;;;6.70;99.90;;;;;;5024530;28;20316;-76
2021/11/23 12:46:00;;;;;;;19.40;10.53;;;6.60;99.90;;;;;;5024971;28;20282;-76
2021/11/23 12:48:32;;;;;;;28.00;11.90;;;6.70;99.90;;;;;;5024725;28;20244;-76
2021/11/23 12:50:59;;;;;;;15.23;10.43;;;6.70;99.90;;;;;;5025036;28;20734;-76
2021/11/23 12:53:26;;;;;;;17.43;11.13;;;6.70;99.90;;;;;;5024911;28;20232;-76